Flight Track Log - Related Links

Times and Time Zones

All times are in EDT time to prevent confusion due to time zone crossing. See the AAY875 flight status page for this flight to view local times or setup timezone preferences in your user account.

Time Position Orientation Groundspeed Altitude Reporting Facility
EDT Latitude Longitude Course Direction KTS MPH feet Rate Location/Type
Sun 06:27:27 PM 44.8264 -68.8997 218° Southwest 218 251 2,900  Level Boston Center
Sun 06:28:31 PM 44.7722 -68.9589 218° Southwest 239 275 6,100 3,484 Climbing Boston Center
Sun 06:29:31 PM 44.7172 -69.0289 222° Southwest 255 293 10,100 2,975 Climbing Boston Center
Sun 06:30:32 PM 44.6644 -69.1092 227° Southwest 270 311 12,100 2,262 Climbing Boston Center
Sun 06:31:33 PM 44.5967 -69.2050 225° Southwest 330 380 14,700 3,049 Climbing Boston Center
Sun 06:32:34 PM 44.5306 -69.2958 224° Southwest 334 384 18,300 2,758 Climbing Boston Center
Sun 06:33:37 PM 44.4647 -69.3869 225° Southwest 328 377 20,400 1,872 Climbing Boston Center
Sun 06:34:39 PM 44.3981 -69.4783 224° Southwest 330 380 22,200 2,049 Climbing Boston Center
Sun 06:35:40 PM 44.3306 -69.5719 225° Southwest 336 387 24,600 2,164 Climbing Boston Center
Sun 06:36:41 PM 44.2675 -69.6614 225° Southwest 325 374 26,600 1,983 Climbing Boston Center
Sun 06:37:41 PM 44.2042 -69.7456 224° Southwest 314 361 28,600 1,463 Climbing Boston Center
Sun 06:38:44 PM 44.1442 -69.8278 225° Southwest 304 350 29,600 683 Climbing Boston Center
Sun 06:39:44 PM 44.0700 -69.9303 225° Southwest 307 353 30,000 194 Climbing Boston Center
Sun 06:40:48 PM 44.0064 -70.0156 224° Southwest 311 358 30,000  Level Boston Center
Sun 06:41:48 PM 43.9425 -70.1022 224° Southwest 315 362 30,000  Level Boston Center
Sun 06:42:49 PM 43.8803 -70.1933 227° Southwest 319 367 30,000  Level Boston Center
Sun 06:43:49 PM 43.8172 -70.2772 224° Southwest 312 359 30,000  Level Boston Center
Sun 06:44:51 PM 43.7522 -70.3625 223° Southwest 314 361 30,000  Level Boston Center
Sun 06:45:54 PM 43.6881 -70.4489 224° Southwest 315 362 30,000  Level Boston Center
Sun 06:46:55 PM 43.6247 -70.5314 223° Southwest 311 358 30,000  Level Boston Center
Sun 06:47:56 PM 43.5600 -70.6172 224° Southwest 316 364 30,000  Level Boston Center
Sun 06:49:59 PM 43.4325 -70.7886 222° Southwest 318 366 30,000  Level Boston Center
Sun 06:51:00 PM 43.3667 -70.8742 223° Southwest 324 373 30,000  Level Boston Center
Sun 06:52:01 PM 43.3031 -70.9547 223° Southwest 317 365 30,000  Level Boston Center
Sun 06:53:04 PM 43.2261 -71.0556 224° Southwest 316 364 30,000  Level Boston Center
Sun 06:54:04 PM 43.1625 -71.1400 224° Southwest 318 366 30,000  Level Boston Center
Sun 06:55:04 PM 43.0975 -71.2269 224° Southwest 323 372 30,000  Level Boston Center
Sun 06:56:05 PM 43.0322 -71.3097 223° Southwest 324 373 30,000  Level Boston Center
Sun 06:57:08 PM 42.9678 -71.3931 223° Southwest 319 367 30,000  Level Boston Center
Sun 06:58:09 PM 42.9028 -71.4767 223° Southwest 318 366 30,000  Level Boston Center
Sun 06:59:10 PM 42.8353 -71.5633 223° Southwest 318 366 30,000  Level Boston Center
Sun 07:00:11 PM 42.7722 -71.6500 225° Southwest 319 367 30,000  Level Boston Center
Sun 07:01:12 PM 42.7094 -71.7325 224° Southwest 317 365 30,000  Level Boston Center
Sun 07:02:15 PM 42.6464 -71.8183 225° Southwest 318 366 30,000  Level Boston Center
Sun 07:03:15 PM 42.5822 -71.9019 224° Southwest 318 366 30,000  Level Boston Center
Sun 07:04:16 PM 42.5189 -71.9872 225° Southwest 319 367 30,000  Level Boston Center
Sun 07:05:16 PM 42.4422 -72.0886 224° Southwest 319 367 30,000  Level Boston Center
Sun 07:06:20 PM 42.3772 -72.1728 224° Southwest 322 371 30,000  Level Boston Center
Sun 07:07:22 PM 42.3139 -72.2572 225° Southwest 321 369 30,000  Level Boston Center
Sun 07:08:22 PM 42.2483 -72.3425 224° Southwest 322 371 30,000  Level Boston Center
Sun 07:09:23 PM 42.1844 -72.4275 225° Southwest 322 371 30,000  Level Boston Center
Sun 07:10:24 PM 42.1186 -72.5119 224° Southwest 322 371 30,000  Level Boston Center
Sun 07:11:25 PM 42.0542 -72.5953 224° Southwest 323 372 30,000  Level Boston Center
Sun 07:12:26 PM 41.9883 -72.6806 224° Southwest 324 373 30,000  Level Boston Center
Sun 07:13:29 PM 41.9233 -72.7650 224° Southwest 324 373 30,000  Level Boston Center
Sun 07:14:30 PM 41.8581 -72.8492 224° Southwest 324 373 30,000  Level Boston Center
Sun 07:15:31 PM 41.7936 -72.9322 224° Southwest 324 373 30,000  Level Boston Center
Sun 07:16:32 PM 41.7269 -73.0158 223° Southwest 324 373 30,000  Level Boston Center
Sun 07:17:32 PM 41.6472 -73.1178 224° Southwest 329 379 30,000  Level Boston Center
Sun 07:18:36 PM 41.5817 -73.2014 224° Southwest 329 379 30,000  Level Boston Center
Sun 07:19:37 PM 41.5228 -73.2747 223° Southwest 328 377 30,000  Level Boston Center
Sun 07:20:36 PM 41.4433 -73.3758 224° Southwest 330 380 30,000  Level Boston Center
Sun 07:21:40 PM 41.3769 -73.4600 224° Southwest 330 380 30,000 387 Level Boston Center
Sun 07:22:40 PM 41.3103 -73.5433 223° Southwest 330 380 30,800 787 Climbing Boston Center
Sun 07:23:42 PM 41.2492 -73.6314 227° Southwest 329 379 31,600 750 Climbing Boston Center
Sun 07:24:16 PM 41.2192 -73.6894 236° Southwest 331 381 32,000 255 Climbing New York Center
Sun 07:25:16 PM 41.1606 -73.7861 231° Southwest 336 387 32,000  Level New York Center
Sun 07:26:16 PM 41.1039 -73.8828 232° Southwest 341 392 32,000  Level New York Center
Sun 07:27:16 PM 41.0450 -73.9789 231° Southwest 341 392 32,000  Level New York Center
Sun 07:28:16 PM 40.9883 -74.0753 232° Southwest 341 392 32,000  Level New York Center
Sun 07:29:16 PM 40.9292 -74.1739 232° Southwest 341 392 32,000  Level New York Center
Sun 07:30:16 PM 40.8725 -74.2644 230° Southwest 341 392 32,000  Level New York Center
Sun 07:31:16 PM 40.8131 -74.3656 232° Southwest 341 392 32,000  Level New York Center
Sun 07:32:16 PM 40.7539 -74.4611 231° Southwest 341 392 32,000  Level New York Center
Sun 07:33:16 PM 40.6947 -74.5564 231° Southwest 341 392 32,000  Level New York Center
Sun 07:34:16 PM 40.6372 -74.6544 232° Southwest 341 392 32,000  Level New York Center
Sun 07:35:16 PM 40.5778 -74.7547 232° Southwest 341 392 32,000  Level New York Center
Sun 07:36:16 PM 40.5142 -74.8439 227° Southwest 341 392 32,000  Level New York Center
Sun 07:37:17 PM 40.4464 -74.9356 226° Southwest 346 398 32,000  Level New York Center
Sun 07:38:16 PM 40.3828 -75.0269 228° Southwest 346 398 32,000  Level New York Center
Sun 07:39:16 PM 40.3147 -75.1208 226° Southwest 351 404 32,000  Level New York Center
Sun 07:40:16 PM 40.2486 -75.2144 227° Southwest 351 404 32,000  Level New York Center
Sun 07:41:16 PM 40.1825 -75.3108 228° Southwest 351 404 32,000  Level New York Center
Sun 07:42:16 PM 40.1119 -75.4067 226° Southwest 362 417 32,000  Level New York Center
Sun 07:43:16 PM 40.0436 -75.4997 226° Southwest 362 417 32,000  Level New York Center
Sun 07:44:16 PM 39.9708 -75.6031 227° Southwest 362 417 32,000  Level New York Center
Sun 07:45:16 PM 39.9042 -75.7014 229° Southwest 362 417 32,000  Level New York Center
Sun 07:46:16 PM 39.8394 -75.7994 229° Southwest 356 410 32,000  Level New York Center
Sun 07:48:31 PM 39.7044 -76.0178 231° Southwest 358 412 32,000  Level Washington Center
Sun 07:49:29 PM 39.6394 -76.1197 230° Southwest 363 418 32,000  Level Washington Center
Sun 07:50:30 PM 39.5767 -76.2161 230° Southwest 363 418 32,000  Level Washington Center
Sun 07:51:31 PM 39.5114 -76.3125 229° Southwest 363 418 32,000  Level Washington Center
Sun 07:52:31 PM 39.4503 -76.4111 231° Southwest 358 412 32,000  Level Washington Center
Sun 07:53:31 PM 39.3850 -76.5125 230° Southwest 358 412 32,000  Level Washington Center
Sun 07:54:29 PM 39.3197 -76.6136 230° Southwest 364 419 32,000  Level Washington Center
Sun 07:55:30 PM 39.2561 -76.7119 230° Southwest 364 419 32,000  Level Washington Center
Sun 07:56:30 PM 39.1947 -76.8100 231° Southwest 364 419 32,000  Level Washington Center
Sun 07:57:30 PM 39.1292 -76.9108 230° Southwest 364 419 32,000  Level Washington Center
Sun 07:58:31 PM 39.0656 -77.0086 230° Southwest 364 419 32,000  Level Washington Center
Sun 07:59:31 PM 38.9914 -77.0978 223° Southwest 364 419 32,000  Level Washington Center
Sun 08:00:29 PM 38.9133 -77.1817 220° Southwest 364 419 32,000  Level Washington Center
Sun 08:01:30 PM 38.8372 -77.2681 221° Southwest 371 427 32,000  Level Washington Center
Sun 08:02:31 PM 38.7608 -77.3514 220° Southwest 371 427 32,000  Level Washington Center
Sun 08:03:31 PM 38.6844 -77.4347 220° Southwest 366 421 32,000  Level Washington Center
Sun 08:04:29 PM 38.6144 -77.5100 220° Southwest 366 421 32,000  Level Washington Center
Sun 08:05:29 PM 38.5381 -77.5931 220° Southwest 366 421 32,000  Level Washington Center
Sun 08:06:30 PM 38.4597 -77.6758 220° Southwest 366 421 32,000  Level Washington Center
Sun 08:07:30 PM 38.3853 -77.7583 221° Southwest 366 421 32,000  Level Washington Center
Sun 08:08:31 PM 38.3064 -77.8433 220° Southwest 366 421 32,000  Level Washington Center
Sun 08:09:29 PM 38.2278 -77.9283 220° Southwest 371 427 32,000  Level Washington Center
Sun 08:10:29 PM 38.1447 -78.0128 219° Southwest 376 433 32,000  Level Washington Center
Sun 08:11:31 PM 38.0681 -78.0947 220° Southwest 376 433 32,000  Level Washington Center
Sun 08:12:29 PM 37.9953 -78.1714 220° Southwest 376 433 32,000  Level Washington Center
Sun 08:13:30 PM 37.9058 -78.2606 218° Southwest 382 440 32,000  Level Washington Center
Sun 08:14:30 PM 37.8206 -78.3389 216° Southwest 382 440 32,000  Level Washington Center
Sun 08:15:31 PM 37.7375 -78.4200 218° Southwest 382 440 32,000  Level Washington Center
Sun 08:16:29 PM 37.6542 -78.4956 216° Southwest 377 434 32,000  Level Washington Center
Sun 08:17:29 PM 37.5708 -78.5761 217° Southwest 377 434 32,000  Level Washington Center
Sun 08:18:30 PM 37.4811 -78.6617 217° Southwest 372 428 32,000  Level Washington Center
Sun 08:19:31 PM 37.3978 -78.7394 217° Southwest 372 428 32,000  Level Washington Center
Sun 08:20:31 PM 37.3144 -78.8142 216° Southwest 372 428 32,000  Level Washington Center
Sun 08:21:29 PM 37.2311 -78.8917 217° Southwest 372 428 32,000  Level Washington Center
Sun 08:22:30 PM 37.1475 -78.9689 216° Southwest 372 428 32,000  Level Washington Center
Sun 08:23:30 PM 37.0725 -79.0383 216° Southwest 377 434 32,000  Level Washington Center
Sun 08:24:30 PM 36.9908 -79.1153 217° Southwest 377 434 32,000  Level Washington Center
Sun 08:25:31 PM 36.9072 -79.1922 216° Southwest 372 428 32,000  Level Washington Center
Sun 08:26:30 PM 36.8258 -79.2661 216° Southwest 372 428 32,000  Level Washington Center
Sun 08:27:30 PM 36.7419 -79.3450 217° Southwest 372 428 32,000  Level Washington Center
Sun 08:28:31 PM 36.6517 -79.4261 216° Southwest 372 428 32,000  Level Washington Center
Sun 08:30:46 PM 36.4719 -79.5906 216° Southwest 370 426 32,000  Level Atlanta Center
Sun 08:31:46 PM 36.3869 -79.6647 215° Southwest 370 426 32,000  Level Atlanta Center
Sun 08:32:46 PM 36.3042 -79.7414 217° Southwest 370 426 32,000  Level Atlanta Center
Sun 08:33:46 PM 36.2133 -79.8236 216° Southwest 375 432 32,000  Level Atlanta Center
Sun 08:34:46 PM 36.1322 -79.8944 215° Southwest 375 432 32,000  Level Atlanta Center
Sun 08:35:46 PM 36.0492 -79.9681 216° Southwest 375 432 32,000  Level Atlanta Center
Sun 08:36:46 PM 35.9531 -80.0242 205° Southwest 375 432 32,000  Level Atlanta Center
Sun 08:37:46 PM 35.8625 -80.0672 201° Southwest 384 442 32,000  Level Atlanta Center
Sun 08:38:46 PM 35.7619 -80.1181 202° Southwest 391 450 32,000  Level Atlanta Center
Sun 08:39:46 PM 35.6572 -80.1692 202° Southwest 396 456 32,000  Level Atlanta Center
Sun 08:40:46 PM 35.5589 -80.2222 204° Southwest 396 456 32,000  Level Atlanta Center
Sun 08:41:46 PM 35.4478 -80.2758 201° Southwest 389 448 32,000  Level Atlanta Center
Sun 08:42:46 PM 35.3469 -80.3264 202° Southwest 394 453 32,000  Level Atlanta Center
Sun 08:43:46 PM 35.2483 -80.3767 203° Southwest 394 453 32,000  Level Atlanta Center
Sun 08:44:46 PM 35.1478 -80.4267 202° Southwest 388 447 32,000  Level Atlanta Center
Sun 08:47:02 PM 34.9242 -80.5356 202° Southwest 393 452 32,000  Level Jacksonville Center
Sun 08:48:02 PM 34.8208 -80.5889 203° Southwest 398 458 32,000  Level Jacksonville Center
Sun 08:49:02 PM 34.7156 -80.6422 203° Southwest 388 447 32,000  Level Jacksonville Center
Sun 08:50:02 PM 34.6142 -80.6928 202° Southwest 388 447 32,000  Level Jacksonville Center
Sun 08:51:02 PM 34.5189 -80.7331 199° South 403 464 32,000  Level Jacksonville Center
Sun 08:52:02 PM 34.4178 -80.7883 204° Southwest 408 470 32,000  Level Jacksonville Center
Sun 08:53:02 PM 34.3161 -80.8361 201° Southwest 408 470 32,000  Level Jacksonville Center
Sun 08:54:02 PM 34.2086 -80.8889 202° Southwest 400 460 32,000  Level Jacksonville Center
Sun 08:55:02 PM 34.1092 -80.9364 202° Southwest 390 449 32,000  Level Jacksonville Center
Sun 08:56:02 PM 34.0056 -80.9861 202° Southwest 395 455 32,000  Level Jacksonville Center
Sun 08:57:02 PM 33.9042 -81.0333 201° Southwest 395 455 32,000  Level Jacksonville Center
Sun 08:58:02 PM 33.8025 -81.0831 202° Southwest 395 455 32,000  Level Jacksonville Center
Sun 08:59:02 PM 33.6989 -81.1350 203° Southwest 395 455 32,000  Level Jacksonville Center
Sun 09:00:02 PM 33.5994 -81.1844 202° Southwest 395 455 32,000  Level Jacksonville Center
Sun 09:01:02 PM 33.4958 -81.2364 203° Southwest 395 455 32,000  Level Jacksonville Center
Sun 09:02:02 PM 33.3942 -81.2856 202° Southwest 395 455 32,000  Level Jacksonville Center
Sun 09:03:02 PM 33.2925 -81.3344 202° Southwest 390 449 32,000  Level Jacksonville Center
Sun 09:04:02 PM 33.1908 -81.3833 202° Southwest 390 449 32,000  Level Jacksonville Center
Sun 09:05:02 PM 33.0911 -81.4322 202° Southwest 390 449 32,000  Level Jacksonville Center
Sun 09:06:02 PM 32.9894 -81.4833 203° Southwest 390 449 32,000  Level Jacksonville Center
Sun 09:07:02 PM 32.8878 -81.5319 202° Southwest 390 449 32,000  Level Jacksonville Center
Sun 09:08:02 PM 32.7819 -81.5831 202° Southwest 395 455 32,000  Level Jacksonville Center
Sun 09:09:02 PM 32.6800 -81.6339 203° Southwest 400 460 32,000  Level Jacksonville Center
Sun 09:10:02 PM 32.5867 -81.6769 201° Southwest 400 460 32,000  Level Jacksonville Center
Sun 09:11:02 PM 32.4744 -81.7328 203° Southwest 395 455 32,000  Level Jacksonville Center
Sun 09:12:02 PM 32.3642 -81.7686 195° South 404 465 32,000  Level Jacksonville Center
Sun 09:13:02 PM 32.2600 -81.7894 190° South 418 481 32,000  Level Jacksonville Center
Sun 09:14:02 PM 32.1369 -81.8181 191° South 418 481 32,000  Level Jacksonville Center
Sun 09:15:02 PM 32.0347 -81.8411 191° South 418 481 32,000  Level Jacksonville Center
Sun 09:16:02 PM 31.9078 -81.8647 189° South 418 481 32,000  Level Jacksonville Center
Sun 09:17:02 PM 31.7950 -81.8928 192° South 418 481 32,000  Level Jacksonville Center
Sun 09:18:02 PM 31.6908 -81.9136 190° South 423 487 32,000  Level Jacksonville Center
Sun 09:19:02 PM 31.5636 -81.9417 191° South 428 493 32,000  Level Jacksonville Center
Sun 09:20:02 PM 31.4617 -81.9622 190° South 428 493 32,000  Level Jacksonville Center
Sun 09:21:02 PM 31.3450 -81.9900 191° South 433 498 32,000  Level Jacksonville Center
Sun 09:22:02 PM 31.2303 -82.0156 191° South 427 491 32,000  Level Jacksonville Center
Sun 09:23:02 PM 31.1133 -82.0383 189° South 427 491 32,000  Level Jacksonville Center
Sun 09:24:02 PM 30.9842 -82.0686 191° South 433 498 32,000  Level Jacksonville Center
Sun 09:25:02 PM 30.8694 -82.0914 190° South 428 493 32,000  Level Jacksonville Center
Sun 09:26:02 PM 30.7547 -82.1142 190° South 428 493 32,000  Level Jacksonville Center
Sun 09:27:02 PM 30.6422 -82.1392 191° South 428 493 32,000  Level Jacksonville Center
Sun 09:28:02 PM 30.5275 -82.1594 189° South 428 493 32,000  Level Jacksonville Center
Sun 09:29:02 PM 30.4108 -82.1844 190° South 428 493 32,000  Level Jacksonville Center
Sun 09:30:02 PM 30.2961 -82.2117 192° South 428 493 32,000  Level Jacksonville Center
Sun 09:31:02 PM 30.1792 -82.2317 188° South 428 493 32,000  Level Jacksonville Center
Sun 09:32:02 PM 30.0625 -82.2589 191° South 428 493 32,000 -100 Level Jacksonville Center
Sun 09:33:02 PM 29.9456 -82.2861 191° South 428 493 31,800 -900 Descending Jacksonville Center
Sun 09:34:02 PM 29.8289 -82.3131 191° South 428 493 30,200 -1,700 Descending Jacksonville Center
Sun 09:35:02 PM 29.7078 -82.3331 188° South 433 498 28,400 -1,800 Descending Jacksonville Center
Sun 09:36:02 PM 29.5847 -82.3553 189° South 440 506 26,600 -1,650 Descending Jacksonville Center
Sun 09:37:02 PM 29.4553 -82.3344 172° South 448 516 25,100 -1,500 Descending Jacksonville Center
Sun 09:38:02 PM 29.3381 -82.2517 148° Southeast 463 533 23,600 -1,750 Descending Jacksonville Center
Sun 09:39:02 PM 29.2228 -82.1883 154° Southeast 463 533 21,600 -2,150 Descending Jacksonville Center
Sun 09:40:02 PM 29.1058 -82.1939 182° South 421 484 19,300 -2,250 Descending Jacksonville Center
Sun 09:41:02 PM 28.9975 -82.2136 189° South 410 472 17,100 -2,000 Descending Jacksonville Center
Sun 09:42:02 PM 28.8911 -82.2333 189° South 399 459 15,300 -1,352 Descending Jacksonville Center
Sun 09:44:04 PM 28.6833 -82.2667 188° South 374 430 13,000 -857 Descending Tampa TRACON
Sun 09:45:04 PM 28.5833 -82.2500 172° South 371 427 12,700 -650 Descending Tampa TRACON
Sun 09:46:04 PM 28.5000 -82.3167 215° Southwest 343 395 11,700 -1,000 Descending Tampa TRACON
Sun 09:47:04 PM 28.4333 -82.4000 228° Southwest 335 386 10,700 -850 Descending Tampa TRACON
Sun 09:48:04 PM 28.3833 -82.4833 236° Southwest 337 388 10,000 -350 Descending Tampa TRACON
Sun 09:49:04 PM 28.3167 -82.5667 228° Southwest 338 389 10,000  Level Tampa TRACON
Sun 09:50:10 PM 28.2500 -82.6500 228° Southwest 340 391 10,000 -143 Level Tampa TRACON
Sun 09:51:10 PM 28.1833 -82.7333 228° Southwest 309 356 9,700 -750 Descending Tampa TRACON
Sun 09:52:10 PM 28.1333 -82.8000 230° Southwest 276 318 8,500 -1,350 Descending Tampa TRACON
Sun 09:53:10 PM 28.0667 -82.8500 214° Southwest 278 320 7,000 -1,300 Descending Tampa TRACON
Sun 09:54:10 PM 28.0000 -82.8500 180° South 288 331 5,900 -1,043 Descending Tampa TRACON
Sun 09:55:05 PM 27.9333 -82.8500 180° South 287 330 5,000 -942 Descending Tampa TRACON
Sun 09:56:11 PM 27.8500 -82.8500 180° South 236 272 4,000 -500 Descending Tampa TRACON
Sun 09:57:05 PM 27.8000 -82.8333 164° South 219 252 4,000 -368 Level Tampa TRACON
Sun 09:58:05 PM 27.7333 -82.8000 156° South 239 275 3,300 -850 Descending Tampa TRACON
Sun 09:59:05 PM 27.7000 -82.7500 127° Southeast 236 272 2,300 -650 Descending Tampa TRACON
Sun 10:00:05 PM 27.7167 -82.6833 74° East 217 250 2,000 -158 Descending Tampa TRACON
Sun 10:00:59 PM 27.7500 -82.6500 42° Northeast 180 207 2,000 -95 Level Tampa TRACON
Sun 10:02:11 PM 27.8000 -82.6667 344° North 146 168 1,800 -391 Descending Tampa TRACON
Sun 10:03:17 PM 27.8500 -82.6833 344° North 150 173 1,100 -667 Descending Tampa TRACON
Sun 10:04:17 PM 27.8833 -82.6833 360° North 135 155 400 -700 Descending Tampa TRACON

Login

Don't have an account? Register now (free) for customized features, flight alerts, and more!